Time;durP1;ratioP1;P1;durP2;ratioP2;P2;SDS_P1;SDS_P2;PMS_P1;PMS_P2;Temp;Humidity;BMP_temperature;BMP_pressure;BME280_temperature;BME280_humidity;BME280_pressure;Samples;Min_cycle;Max_cycle;Signal;HPM_P1;HPM_P2
2022/05/20 00:00:48;;;;;;;14.50;4.60;;;;;;;11.29;55.09;101896.70;1726362;83;25769;-58
2022/05/20 00:03:17;;;;;;;14.90;5.33;;;;;;;11.27;54.97;101895.44;1725964;82;25922;-58
2022/05/20 00:05:43;;;;;;;15.95;5.12;;;;;;;11.24;55.10;101898.38;1726254;83;25872;-59
2022/05/20 00:08:11;;;;;;;10.85;5.00;;;;;;;11.22;55.31;101904.36;1716665;80;27615;-59
2022/05/20 00:10:38;;;;;;;16.32;4.85;;;;;;;11.19;55.38;101899.69;1715254;83;25816;-59
2022/05/20 00:13:06;;;;;;;9.10;4.05;;;;;;;11.13;55.60;101899.65;1705293;83;25943;-58
2022/05/20 00:15:33;;;;;;;17.87;4.92;;;;;;;11.06;55.99;101907.30;1705396;82;26179;-58
2022/05/20 00:18:00;;;;;;;12.13;4.42;;;;;;;10.96;56.22;101905.78;1705034;83;25670;-59
2022/05/20 00:20:29;;;;;;;13.55;4.55;;;;;;;10.88;56.79;101905.94;1705623;83;27570;-58
2022/05/20 00:22:57;;;;;;;9.38;4.60;;;;;;;10.79;56.85;101907.48;1704924;84;25454;-58
2022/05/20 00:28:09;;;;;;;13.83;3.95;;;;;;;10.74;58.05;101914.53;1705027;82;26999;-58
2022/05/20 00:30:36;;;;;;;10.93;4.28;;;;;;;10.74;58.17;101913.66;1705378;83;25798;-58
2022/05/20 00:33:05;;;;;;;11.22;4.70;;;;;;;10.73;57.79;101908.77;1701634;83;45620;-59
2022/05/20 00:35:32;;;;;;;21.23;4.75;;;;;;;10.73;57.69;101900.70;1699927;83;25762;-59
2022/05/20 00:37:58;;;;;;;10.90;4.05;;;;;;;10.75;58.05;101904.15;1699874;84;25786;-59
2022/05/20 00:40:28;;;;;;;14.25;4.15;;;;;;;10.81;58.14;101896.09;1699869;84;26093;-59
2022/05/20 00:43:28;;;;;;;15.70;4.00;;;;;;;10.83;57.86;101899.55;1703824;82;25757;-59
2022/05/20 00:45:59;;;;;;;12.73;4.00;;;;;;;10.84;58.16;101903.95;1705456;82;29640;-59
2022/05/20 00:48:28;;;;;;;17.98;4.50;;;;;;;10.80;58.03;101896.59;1742680;81;25738;-59
2022/05/20 00:51:16;;;;;;;8.05;3.92;;;;;;;10.84;58.33;101902.61;1742863;81;25833;-59
2022/05/20 00:53:51;;;;;;;12.35;4.55;;;;;;;10.90;58.43;101891.89;1736742;82;26120;-59
2022/05/20 00:56:23;;;;;;;12.70;4.30;;;;;;;10.94;58.44;101897.41;1741624;81;25733;-59
2022/05/20 00:58:52;;;;;;;15.23;4.47;;;;;;;10.87;58.27;101906.44;1742403;82;27498;-60
2022/05/20 01:01:20;;;;;;;11.83;4.25;;;;;;;10.80;58.20;101906.02;1742651;82;25794;-59
2022/05/20 01:03:48;;;;;;;10.90;4.03;;;;;;;10.79;58.14;101900.75;1727356;82;25670;-59
2022/05/20 01:06:14;;;;;;;13.40;5.05;;;;;;;10.71;58.15;101906.67;1705107;82;26080;-58
2022/05/20 01:08:42;;;;;;;20.70;4.70;;;;;;;10.68;58.08;101909.56;1714126;81;27351;-58
2022/05/20 01:11:09;;;;;;;8.13;3.50;;;;;;;10.71;57.91;101904.48;1714760;82;27478;-59
2022/05/20 01:13:37;;;;;;;12.05;3.92;;;;;;;10.68;57.80;101900.65;1714933;83;25800;-58
2022/05/20 01:16:11;;;;;;;12.70;4.20;;;;;;;10.62;57.80;101901.94;1690847;83;25976;-58
2022/05/20 01:18:41;;;;;;;15.63;4.50;;;;;;;10.55;58.08;101910.92;1715218;83;26952;-58
2022/05/20 01:21:08;;;;;;;19.87;4.60;;;;;;;10.48;58.19;101907.83;1715324;82;25713;-59
2022/05/20 01:23:37;;;;;;;8.13;4.00;;;;;;;10.47;58.20;101904.76;1715107;83;28170;-59
2022/05/20 01:26:06;;;;;;;13.05;3.87;;;;;;;10.47;58.38;101910.13;1715287;82;25845;-58
2022/05/20 01:28:35;;;;;;;14.55;4.97;;;;;;;10.44;58.26;101908.15;1715080;83;25749;-58
2022/05/20 01:31:13;;;;;;;11.83;4.15;;;;;;;10.43;58.77;101909.11;1715440;82;25983;-59
2022/05/20 01:33:50;;;;;;;10.88;4.20;;;;;;;10.40;58.49;101908.81;1710715;83;25841;-59
2022/05/20 01:36:22;;;;;;;13.25;5.03;;;;;;;10.32;58.93;101899.92;1714927;83;27434;-59
2022/05/20 01:38:52;;;;;;;17.27;5.90;;;;;;;10.24;59.56;101901.41;1715058;83;25737;-58
2022/05/20 01:41:27;;;;;;;11.80;4.78;;;;;;;10.15;60.35;101902.42;1715212;83;25813;-59
2022/05/20 01:43:59;;;;;;;16.50;4.72;;;;;;;10.09;60.22;101901.52;1715492;83;26893;-59
2022/05/20 01:46:41;;;;;;;12.82;4.75;;;;;;;10.08;60.38;101903.82;1715188;81;25721;-58
2022/05/20 01:49:20;;;;;;;18.82;5.22;;;;;;;10.09;60.29;101894.79;1715558;83;27478;-58
2022/05/20 01:52:10;;;;;;;12.85;5.05;;;;;;;10.08;60.76;101889.03;1715288;82;25646;-59
2022/05/20 01:55:06;;;;;;;19.35;6.10;;;;;;;10.02;60.47;101893.00;1715518;82;25630;-59
2022/05/20 01:58:10;;;;;;;16.93;5.53;;;;;;;9.99;60.80;101896.38;1715908;83;26790;-58
2022/05/20 02:00:39;;;;;;;12.47;4.55;;;;;;;9.97;61.65;101889.78;1715789;83;25770;-59
2022/05/20 02:03:26;;;;;;;14.33;5.15;;;;;;;9.96;62.04;101893.89;1721273;81;27055;-59
2022/05/20 02:06:20;;;;;;;15.18;5.12;;;;;;;9.94;62.44;101898.04;1715220;82;25774;-58
2022/05/20 02:09:07;;;;;;;18.62;5.33;;;;;;;9.95;62.13;101898.92;1715169;82;25832;-58
2022/05/20 02:11:42;;;;;;;11.93;4.45;;;;;;;9.96;62.39;101897.46;1715507;83;26864;-59
2022/05/20 02:14:17;;;;;;;16.75;5.62;;;;;;;9.96;63.08;101897.46;1715190;82;25740;-59
2022/05/20 02:16:48;;;;;;;14.95;4.85;;;;;;;9.92;63.16;101903.15;1715591;83;27449;-60
2022/05/20 02:19:29;;;;;;;14.03;4.75;;;;;;;9.90;62.73;101904.61;1715068;83;25658;-58
2022/05/20 02:22:00;;;;;;;11.18;4.85;;;;;;;9.91;62.97;101900.92;1714920;82;25699;-59
2022/05/20 02:24:30;;;;;;;18.30;5.03;;;;;;;9.92;62.58;101897.28;1715195;83;26785;-58
2022/05/20 02:27:02;;;;;;;15.35;4.83;;;;;;;9.94;62.65;101896.70;1715522;82;25781;-60
2022/05/20 02:29:39;;;;;;;11.40;4.58;;;;;;;10.00;62.64;101900.80;1715182;83;27467;-60
2022/05/20 02:32:17;;;;;;;8.63;3.75;;;;;;;10.05;62.41;101906.70;1715211;83;25836;-60
2022/05/20 02:34:45;;;;;;;14.58;5.33;;;;;;;10.08;62.39;101906.52;1714939;83;25786;-58
2022/05/20 02:37:34;;;;;;;16.82;5.20;;;;;;;10.07;62.05;101911.50;1715231;83;26242;-59
2022/05/20 02:40:03;;;;;;;12.93;4.50;;;;;;;10.03;61.96;101911.35;1714768;82;26198;-58
2022/05/20 02:42:31;;;;;;;15.03;4.50;;;;;;;10.01;61.91;101913.28;1715417;83;27442;-58
2022/05/20 02:45:01;;;;;;;15.35;5.08;;;;;;;10.01;61.64;101912.78;1715273;83;25740;-58
2022/05/20 02:47:32;;;;;;;11.12;4.62;;;;;;;10.01;61.40;101915.97;1715500;82;25737;-59
2022/05/20 02:49:58;;;;;;;10.10;4.25;;;;;;;9.98;61.21;101913.01;1714860;82;27016;-59
2022/05/20 02:52:25;;;;;;;16.93;5.33;;;;;;;9.95;61.40;101902.95;1715738;82;26403;-58
2022/05/20 02:54:52;;;;;;;10.75;4.83;;;;;;;9.88;61.46;101910.56;1715100;82;27511;-58
2022/05/20 02:57:19;;;;;;;11.90;4.97;;;;;;;9.82;61.11;101910.95;1715527;83;25742;-59
2022/05/20 03:05:19;;;;;;;19.77;4.85;;;;;;;9.60;61.69;101904.34;1744642;79;25549;-60
2022/05/20 03:07:46;;;;;;;11.78;3.95;;;;;;;9.57;61.74;101907.72;1752801;80;28063;-59
2022/05/20 03:10:14;;;;;;;115.00;7.17;;;;;;;9.54;61.58;101907.45;1742720;82;25433;-59
2022/05/20 03:12:40;;;;;;;22.67;4.85;;;;;;;9.51;61.78;101908.48;1742798;81;25780;-60
2022/05/20 03:15:11;;;;;;;16.50;4.75;;;;;;;9.49;61.87;101909.56;1742396;82;26084;-60
2022/05/20 03:17:39;;;;;;;12.07;4.60;;;;;;;9.45;62.28;101912.94;1742832;82;25795;-60
2022/05/20 03:20:09;;;;;;;10.30;4.08;;;;;;;9.43;62.13;101915.34;1742517;82;27321;-60
2022/05/20 03:22:37;;;;;;;12.60;3.87;;;;;;;9.43;62.26;101926.09;1742895;81;25540;-60
2022/05/20 03:25:06;;;;;;;13.38;3.77;;;;;;;9.40;62.91;101925.32;1742708;82;25758;-59
2022/05/20 03:27:33;;;;;;;10.90;4.22;;;;;;;9.39;63.08;101925.43;1742957;82;26756;-59
2022/05/20 03:30:00;;;;;;;10.93;3.80;;;;;;;9.39;63.43;101919.56;1742681;82;25753;-59
2022/05/20 03:32:27;;;;;;;12.30;5.03;;;;;;;9.42;63.09;101921.67;1728194;81;28168;-60
2022/05/20 03:34:57;;;;;;;19.20;4.12;;;;;;;9.45;63.36;101919.65;1705030;84;25797;-60
2022/05/20 03:37:25;;;;;;;18.77;4.35;;;;;;;9.50;63.83;101924.22;1705133;84;25739;-60
2022/05/20 03:39:55;;;;;;;12.20;4.08;;;;;;;9.56;63.73;101916.25;1705129;82;26024;-59
2022/05/20 03:42:23;;;;;;;11.03;4.70;;;;;;;9.66;63.62;101913.33;1705529;84;26142;-60
2022/05/20 03:44:50;;;;;;;17.57;3.90;;;;;;;9.76;63.68;101920.31;1705230;82;28254;-59
2022/05/20 03:47:18;;;;;;;8.13;4.05;;;;;;;9.83;63.69;101920.74;1705486;83;25868;-60
2022/05/20 03:49:46;;;;;;;15.35;4.42;;;;;;;9.92;63.57;101920.12;1705246;84;25816;-59
2022/05/20 03:52:14;;;;;;;10.58;4.20;;;;;;;10.00;63.80;101924.99;1705546;82;26327;-58
2022/05/20 03:54:42;;;;;;;18.05;4.58;;;;;;;10.09;63.40;101930.21;1705167;83;25837;-59
2022/05/20 03:57:09;;;;;;;11.53;4.83;;;;;;;10.19;63.35;101924.59;1705283;82;28304;-60
2022/05/20 03:59:36;;;;;;;21.45;5.37;;;;;;;10.32;63.21;101924.59;1705026;82;25815;-59
2022/05/20 04:02:10;;;;;;;14.50;4.25;;;;;;;10.43;62.72;101927.94;1705227;84;25826;-59
2022/05/20 04:04:44;;;;;;;18.62;4.67;;;;;;;10.50;62.40;101931.92;1702646;83;25783;-59
2022/05/20 04:07:25;;;;;;;38.50;6.25;;;;;;;10.55;62.24;101928.41;1702845;84;26155;-60
2022/05/20 04:09:53;;;;;;;32.83;5.20;;;;;;;10.58;61.90;101925.52;1723899;79;27469;-60
2022/05/20 04:12:33;;;;;;;32.23;5.10;;;;;;;10.64;61.75;101925.57;1724530;83;25698;-60
2022/05/20 04:15:03;;;;;;;24.95;4.83;;;;;;;10.69;61.50;101919.37;1724397;81;25762;-60
2022/05/20 04:17:30;;;;;;;38.53;6.67;;;;;;;10.77;61.26;101924.22;1724464;83;26797;-59
2022/05/20 04:19:57;;;;;;;20.90;5.15;;;;;;;10.85;61.15;101913.76;1724495;81;25809;-60
2022/05/20 04:22:28;;;;;;;10.40;3.67;;;;;;;10.92;60.78;101919.57;1724399;83;27815;-60
2022/05/20 04:24:56;;;;;;;13.10;3.80;;;;;;;11.01;59.85;101915.34;1723527;82;25465;-60
2022/05/20 04:27:23;;;;;;;33.95;4.25;;;;;;;11.12;58.93;101922.16;1724649;83;25821;-60
2022/05/20 04:29:50;;;;;;;22.65;3.95;;;;;;;11.19;58.45;101909.96;1724210;83;26723;-60
2022/05/20 04:32:17;;;;;;;22.22;4.42;;;;;;;11.28;57.61;101913.83;1721645;83;25802;-60
2022/05/20 04:34:44;;;;;;;15.43;3.62;;;;;;;11.39;57.53;101913.03;1715464;83;27629;-59
2022/05/20 04:37:11;;;;;;;11.00;3.55;;;;;;;11.49;57.46;101912.72;1715242;83;25461;-59
2022/05/20 04:39:37;;;;;;;15.63;4.40;;;;;;;11.60;57.26;101915.95;1715383;83;25757;-59
2022/05/20 04:47:36;;;;;;;25.37;5.62;;;;;;;11.85;56.99;101904.19;1715652;82;27474;-59
2022/05/20 04:50:06;;;;;;;21.42;4.37;;;;;;;11.95;56.63;101900.29;1715697;82;25856;-59
2022/05/20 04:52:33;;;;;;;9.35;3.62;;;;;;;12.06;56.50;101907.58;1715656;83;25753;-58
2022/05/20 04:55:00;;;;;;;38.20;5.03;;;;;;;12.16;56.31;101906.40;1715608;82;27070;-59
2022/05/20 04:57:34;;;;;;;23.90;5.03;;;;;;;12.25;56.24;101901.64;1715635;83;25549;-59
2022/05/20 05:00:12;;;;;;;21.85;5.85;;;;;;;12.32;56.03;101909.62;1715632;82;27483;-59
2022/05/20 05:02:40;;;;;;;21.42;6.28;;;;;;;12.42;55.90;101907.05;1715405;83;25759;-59
2022/05/20 05:05:11;;;;;;;29.55;5.90;;;;;;;12.47;55.91;101907.56;1714822;83;25750;-60
2022/05/20 05:07:42;;;;;;;41.33;9.60;;;;;;;12.55;55.90;101916.38;1714910;83;27040;-59
2022/05/20 05:10:12;;;;;;;12.00;4.22;;;;;;;12.64;55.72;101913.46;1729036;81;25802;-59
2022/05/20 05:12:39;;;;;;;28.95;4.80;;;;;;;12.72;54.99;101913.70;1729930;82;27611;-59
2022/05/20 05:15:09;;;;;;;15.85;4.65;;;;;;;12.80;54.62;101907.20;1730170;82;25775;-59
2022/05/20 05:20:24;;;;;;;10.25;3.80;;;;;;;12.97;53.25;101900.92;1730222;82;26036;-59
2022/05/20 05:22:56;;;;;;;24.55;4.20;;;;;;;13.06;52.76;101900.18;1730096;82;25961;-59
2022/05/20 05:25:28;;;;;;;17.77;3.55;;;;;;;13.13;51.72;101901.90;1729912;81;27474;-59
2022/05/20 05:27:55;;;;;;;15.40;3.33;;;;;;;13.24;51.07;101906.41;1730116;82;25848;-58
2022/05/20 05:30:22;;;;;;;12.93;3.30;;;;;;;13.34;50.50;101904.67;1743772;81;25744;-58
2022/05/20 05:32:50;;;;;;;9.75;3.00;;;;;;;13.45;49.23;101903.34;1745544;81;27035;-58
2022/05/20 05:35:21;;;;;;;20.88;3.55;;;;;;;13.58;49.16;101907.73;1736074;82;25818;-58
2022/05/20 05:37:49;;;;;;;7.95;2.50;;;;;;;13.74;48.49;101904.58;1750520;80;27520;-59
2022/05/20 05:40:20;;;;;;;9.28;3.17;;;;;;;13.87;47.97;101901.69;1772310;80;25790;-59
2022/05/20 05:42:48;;;;;;;10.38;3.00;;;;;;;13.99;47.21;101903.37;1772651;80;25726;-59
2022/05/20 05:45:19;;;;;;;5.70;2.90;;;;;;;14.12;46.98;101898.27;1772376;79;26770;-59
2022/05/20 05:47:54;;;;;;;17.10;3.05;;;;;;;14.24;46.77;101899.89;1730694;80;25737;-58
2022/05/20 05:50:22;;;;;;;18.55;2.87;;;;;;;14.32;46.22;101901.44;1732617;82;27969;-59
2022/05/20 05:53:13;;;;;;;14.93;2.47;;;;;;;14.45;45.57;101904.45;1736397;81;25863;-59
2022/05/20 05:55:42;;;;;;;7.60;2.52;;;;;;;14.53;45.94;101904.63;1736077;82;25476;-59
2022/05/20 05:58:09;;;;;;;14.78;2.52;;;;;;;14.63;45.79;101904.66;1736374;82;26171;-57
2022/05/20 06:00:37;;;;;;;10.80;2.47;;;;;;;14.73;45.69;101902.05;1736079;81;26110;-58
2022/05/20 06:03:06;;;;;;;18.12;3.05;;;;;;;14.83;45.46;101905.66;1736575;82;28426;-58
2022/05/20 06:05:33;;;;;;;12.68;3.08;;;;;;;14.92;45.49;101899.42;1736121;81;25796;-58
2022/05/20 06:08:00;;;;;;;9.43;3.58;;;;;;;15.01;45.44;101899.96;1736124;82;25764;-58
2022/05/20 06:10:28;;;;;;;6.08;2.35;;;;;;;15.12;45.65;101892.20;1718930;81;26050;-58
2022/05/20 06:12:55;;;;;;;8.65;3.00;;;;;;;15.20;45.22;101896.07;1717569;82;25711;-58
2022/05/20 06:15:22;;;;;;;9.10;2.90;;;;;;;15.30;44.77;101891.53;1717034;82;28489;-59
2022/05/20 06:17:52;;;;;;;8.65;3.02;;;;;;;15.41;45.15;101895.96;1717647;82;25794;-58
2022/05/20 06:20:21;;;;;;;16.20;3.15;;;;;;;15.52;44.92;101889.55;1717434;82;25763;-59
2022/05/20 06:22:49;;;;;;;11.38;3.25;;;;;;;15.60;44.67;101877.48;1733417;82;26154;-60
2022/05/20 06:25:17;;;;;;;14.78;3.65;;;;;;;15.75;44.55;101876.56;1741492;80;25948;-59
2022/05/20 06:27:45;;;;;;;21.57;7.78;;;;;;;15.86;44.39;101880.52;1741414;81;27672;-58
2022/05/20 06:30:18;;;;;;;12.10;3.35;;;;;;;15.94;44.69;101870.31;1717303;82;25758;-59
2022/05/20 06:32:45;;;;;;;29.65;3.47;;;;;;;16.05;44.80;101886.94;1708601;83;25809;-60
2022/05/20 06:40:49;;;;;;;32.70;3.65;;;;;;;16.32;43.75;101865.78;1690537;84;27492;-59
2022/05/20 06:43:21;;;;;;;13.53;3.40;;;;;;;16.42;43.77;101868.48;1700159;84;25742;-59
2022/05/20 06:45:53;;;;;;;9.20;2.62;;;;;;;16.51;43.55;101865.37;1700843;84;25648;-59
2022/05/20 06:48:19;;;;;;;7.83;3.02;;;;;;;16.59;42.98;101856.84;1705288;82;26074;-59
2022/05/20 06:50:46;;;;;;;19.25;2.80;;;;;;;16.71;43.25;101856.66;1705699;83;25779;-59
2022/05/20 06:53:13;;;;;;;19.52;3.12;;;;;;;16.84;42.67;101860.39;1705227;83;28515;-59
2022/05/20 06:55:40;;;;;;;11.10;3.10;;;;;;;16.96;42.29;101860.55;1705101;82;25745;-58
2022/05/20 06:58:07;;;;;;;12.05;2.92;;;;;;;17.08;41.91;101855.75;1705269;83;25781;-59
2022/05/20 07:00:35;;;;;;;9.18;2.55;;;;;;;17.20;41.77;101854.53;1705022;83;26255;-59
2022/05/20 07:03:02;;;;;;;11.05;2.83;;;;;;;17.32;41.46;101852.96;1705258;83;27327;-59
2022/05/20 07:05:29;;;;;;;11.30;3.10;;;;;;;17.43;41.30;101847.30;1705376;83;27734;-59
2022/05/20 07:07:56;;;;;;;12.13;3.25;;;;;;;17.54;41.44;101851.64;1704933;82;25855;-59
2022/05/20 07:10:23;;;;;;;13.20;2.77;;;;;;;17.68;40.55;101855.16;1717173;83;25736;-59
2022/05/20 07:12:50;;;;;;;11.80;2.62;;;;;;;17.78;40.24;101853.73;1702038;83;26181;-60
2022/05/20 07:15:17;;;;;;;11.18;2.92;;;;;;;17.89;40.55;101853.11;1695327;83;25801;-59
2022/05/20 07:17:48;;;;;;;21.12;2.92;;;;;;;17.98;39.71;101853.55;1714417;83;27403;-59
2022/05/20 07:20:14;;;;;;;21.15;3.20;;;;;;;18.10;38.72;101855.02;1694930;84;25649;-60
2022/05/20 07:22:41;;;;;;;10.90;3.35;;;;;;;18.26;38.77;101853.41;1711144;81;25759;-59
2022/05/20 07:25:11;;;;;;;19.60;3.20;;;;;;;18.38;38.77;101848.05;1733263;82;26112;-59
2022/05/20 07:27:38;;;;;;;18.55;3.05;;;;;;;18.53;38.10;101851.52;1733654;82;25680;-60
2022/05/20 07:30:10;;;;;;;13.72;3.47;;;;;;;18.69;37.59;101843.93;1733473;82;27581;-60
2022/05/20 07:32:38;;;;;;;13.85;3.80;;;;;;;18.80;37.88;101838.69;1699368;83;26475;-60
2022/05/20 07:35:06;;;;;;;14.65;3.42;;;;;;;18.89;37.33;101830.88;1729810;82;25717;-59
2022/05/20 07:37:33;;;;;;;13.60;3.35;;;;;;;18.98;37.04;101829.91;1733379;82;26084;-59
2022/05/20 07:40:00;;;;;;;17.67;3.40;;;;;;;19.07;36.67;101827.56;1733754;82;25680;-59
2022/05/20 07:42:27;;;;;;;16.27;3.30;;;;;;;19.18;35.63;101834.59;1733370;82;27558;-60
2022/05/20 07:44:54;;;;;;;24.00;3.90;;;;;;;19.28;35.57;101826.24;1733418;81;25769;-60
2022/05/20 07:47:22;;;;;;;18.23;3.30;;;;;;;19.39;35.71;101828.66;1704417;82;25777;-60
2022/05/20 07:49:49;;;;;;;8.08;3.12;;;;;;;19.51;34.66;101827.80;1695906;84;26494;-60
2022/05/20 07:53:19;;;;;;;11.60;3.08;;;;;;;19.64;33.90;101831.39;1703610;81;25508;-60
2022/05/20 07:54:48;;;;;;;14.13;3.62;;;;;;;19.73;34.32;101827.30;1719654;83;27646;-60
2022/05/20 07:57:15;;;;;;;21.40;3.90;;;;;;;19.84;34.26;101821.48;1724699;83;25764;-60
2022/05/20 07:59:52;;;;;;;8.83;2.62;;;;;;;19.96;34.31;101825.59;1707232;83;25727;-59
2022/05/20 08:02:23;;;;;;;18.10;2.62;;;;;;;20.10;34.26;101823.19;1705286;83;26085;-59
2022/05/20 08:04:58;;;;;;;10.65;2.47;;;;;;;20.21;34.05;101812.40;1725251;83;25876;-60
2022/05/20 08:07:35;;;;;;;12.85;2.95;;;;;;;20.32;34.01;101819.70;1725285;83;27538;-61
2022/05/20 08:10:07;;;;;;;13.05;2.60;;;;;;;20.46;33.39;101824.95;1746300;80;26446;-60
2022/05/20 08:12:34;;;;;;;20.70;2.75;;;;;;;20.62;32.18;101820.45;1753312;80;25731;-59
2022/05/20 08:15:01;;;;;;;7.28;2.40;;;;;;;20.76;32.14;101813.41;1767366;80;26849;-59
2022/05/20 08:17:29;;;;;;;15.98;2.50;;;;;;;20.87;31.99;101817.65;1767635;81;25725;-60
2022/05/20 08:19:56;;;;;;;9.10;2.58;;;;;;;20.99;31.33;101817.56;1767523;81;27554;-59
2022/05/20 08:22:23;;;;;;;7.80;2.65;;;;;;;21.10;31.03;101823.16;1767612;81;25730;-59
2022/05/20 08:24:53;;;;;;;7.80;1.98;;;;;;;21.22;31.63;101803.91;1767600;81;25767;-59
2022/05/20 08:27:22;;;;;;;12.82;2.20;;;;;;;21.33;30.68;101799.05;1740472;79;26316;-59
2022/05/20 08:29:50;;;;;;;8.18;3.27;;;;;;;21.42;31.06;101793.84;1734210;81;25843;-58
2022/05/20 08:32:18;;;;;;;10.43;2.25;;;;;;;21.55;30.19;101797.33;1767545;81;27471;-58
2022/05/20 08:34:46;;;;;;;6.28;2.17;;;;;;;21.68;30.51;101791.26;1767595;81;26137;-59
2022/05/20 08:37:15;;;;;;;9.25;2.27;;;;;;;21.85;30.63;101784.59;1767746;81;25736;-59
2022/05/20 08:39:43;;;;;;;12.20;2.67;;;;;;;22.01;29.29;101783.58;1767567;81;26078;-59
2022/05/20 08:42:20;;;;;;;12.28;2.50;;;;;;;22.15;29.83;101777.77;1764303;81;26023;-58
2022/05/20 08:44:47;;;;;;;12.00;2.45;;;;;;;22.33;29.90;101769.69;1764204;81;27390;-59
2022/05/20 08:47:28;;;;;;;10.75;2.02;;;;;;;22.54;29.59;101770.30;1738066;80;25509;-59
2022/05/20 08:50:00;;;;;;;8.13;2.00;;;;;;;22.73;28.41;101766.63;1729238;81;25789;-60
2022/05/20 08:52:28;;;;;;;12.00;2.00;;;;;;;22.91;28.11;101764.30;1766551;80;25932;-59
2022/05/20 08:54:55;;;;;;;4.60;2.10;;;;;;;23.12;27.41;101765.37;1767707;81;25791;-59
2022/05/20 08:57:27;;;;;;;5.42;1.70;;;;;;;23.25;27.67;101758.66;1745740;81;27323;-60
2022/05/20 08:59:55;;;;;;;6.78;1.60;;;;;;;23.48;26.96;101749.88;1731907;81;25543;-60
2022/05/20 09:02:23;;;;;;;4.00;1.90;;;;;;;23.69;27.44;101756.71;1730065;81;25809;-60
2022/05/20 09:04:51;;;;;;;6.45;1.75;;;;;;;23.95;26.52;101750.23;1739214;81;26150;-59
2022/05/20 09:07:20;;;;;;;7.17;1.90;;;;;;;24.16;25.71;101747.95;1729308;82;25674;-59
2022/05/20 09:10:01;;;;;;;5.70;1.62;;;;;;;24.36;24.72;101753.01;1732071;81;27434;-59
2022/05/20 09:12:38;;;;;;;11.08;1.70;;;;;;;24.50;24.37;101744.83;1742469;80;25741;-61
2022/05/20 09:18:14;;;;;;;6.10;1.20;;;;;;;25.00;23.01;101740.45;1714592;83;26202;-59
2022/05/20 09:20:51;;;;;;;13.98;1.60;;;;;;;25.42;22.40;101737.53;1714086;83;25490;-59
2022/05/20 09:23:21;;;;;;;5.05;1.77;;;;;;;25.75;21.43;101727.86;1735892;80;27668;-60
2022/05/20 09:26:05;;;;;;;2.98;1.72;;;;;;;26.02;21.87;101726.97;1740646;82;25870;-60
2022/05/20 09:28:46;;;;;;;;;;;;;;;26.34;21.68;101720.19;1747867;80;25732;-59
2022/05/20 09:31:21;;;;;;;8.00;1.40;;;;;;;26.72;21.92;101716.06;1742072;80;26170;-59
2022/05/20 09:34:06;;;;;;;5.40;1.37;;;;;;;27.29;22.61;101711.67;1720380;82;26160;-59
2022/05/20 09:36:40;;;;;;;6.75;1.98;;;;;;;27.72;21.27;101703.96;1744530;81;27506;-59
2022/05/20 09:39:16;;;;;;;11.68;1.40;;;;;;;28.17;20.30;101695.91;1748032;80;27257;-59
2022/05/20 09:41:54;;;;;;;11.90;2.12;;;;;;;28.52;20.68;101695.79;1751383;81;25799;-59
2022/05/20 09:44:26;;;;;;;6.10;1.45;;;;;;;28.91;19.08;101692.16;1764379;80;27304;-59
2022/05/20 09:47:10;;;;;;;7.87;1.40;;;;;;;29.12;19.09;101688.51;1743452;82;26131;-59
2022/05/20 09:49:47;;;;;;;6.67;1.30;;;;;;;29.31;19.21;101681.78;1758225;80;27492;-59
2022/05/20 09:52:31;;;;;;;5.72;1.62;;;;;;;29.78;19.42;101675.95;1702398;82;25756;-59
2022/05/20 09:55:03;;;;;;;2.33;1.45;;;;;;;30.29;18.79;101682.59;1748240;82;25649;-59
2022/05/20 09:57:38;;;;;;;5.10;2.12;;;;;;;30.66;17.79;101673.59;1707994;82;26743;-59
2022/05/20 10:00:32;;;;;;;9.60;1.37;;;;;;;30.82;17.58;101663.60;1745766;80;25714;-60
2022/05/20 10:03:12;;;;;;;12.10;1.57;;;;;;;30.84;17.35;101668.37;1782988;79;27483;-60
2022/05/20 10:05:59;;;;;;;9.93;1.60;;;;;;;30.93;17.28;101659.88;1783022;79;25912;-60
2022/05/20 10:08:41;;;;;;;8.55;1.57;;;;;;;31.48;17.14;101652.72;1782366;80;25733;-60
2022/05/20 10:11:25;;;;;;;5.17;1.35;;;;;;;31.85;17.21;101648.50;1774958;80;26891;-60
2022/05/20 10:14:12;;;;;;;10.65;1.40;;;;;;;32.12;17.00;101636.58;1772998;80;26018;-61
2022/05/20 10:17:02;;;;;;;10.72;1.12;;;;;;;32.50;17.29;101640.92;1755920;80;27464;-59
2022/05/20 10:19:50;;;;;;;4.10;1.20;;;;;;;32.61;16.62;101638.50;1772817;80;25823;-59
2022/05/20 10:22:23;;;;;;;1.67;0.98;;;;;;;32.55;15.95;101636.78;1774197;80;25914;-60
2022/05/20 10:25:18;;;;;;;5.62;1.52;;;;;;;32.38;16.16;101632.17;1764056;80;28240;-59
2022/05/20 10:28:08;;;;;;;5.80;1.45;;;;;;;32.29;16.35;101637.92;1731760;81;25958;-59
2022/05/20 10:33:38;;;;;;;5.50;1.35;;;;;;;31.56;16.80;101630.56;1737978;80;25637;-59
2022/05/20 10:36:35;;;;;;;8.60;1.40;;;;;;;31.08;16.56;101627.34;1746619;81;25757;-60
2022/05/20 10:39:16;;;;;;;9.53;1.15;;;;;;;31.10;16.62;101623.80;1767676;81;26092;-59
2022/05/20 10:42:01;;;;;;;3.65;1.62;;;;;;;31.54;17.30;101611.37;1761701;81;25605;-59
2022/05/20 10:51:11;;;;;;;5.10;1.27;;;;;;;33.00;16.40;101602.09;1733586;81;25729;-60
2022/05/20 10:54:02;;;;;;;4.72;1.22;;;;;;;33.06;16.19;101596.00;1741109;81;26060;-60
2022/05/20 10:57:08;;;;;;;8.53;1.67;;;;;;;33.34;15.91;101593.40;1763829;81;25685;-59
2022/05/20 10:59:59;;;;;;;3.42;1.20;;;;;;;33.54;15.88;101587.08;1762707;81;27432;-60
2022/05/20 11:03:08;;;;;;;3.12;1.20;;;;;;;33.33;15.84;101579.17;1763457;80;25779;-59
2022/05/20 11:06:15;;;;;;;6.40;1.60;;;;;;;33.14;15.20;101581.55;1767390;81;25779;-59
2022/05/20 11:09:05;;;;;;;8.63;1.15;;;;;;;34.00;15.85;101578.08;1767856;81;26137;-60
2022/05/20 11:11:51;;;;;;;12.25;1.60;;;;;;;34.67;15.03;101571.73;1767594;81;25486;-60
2022/05/20 11:15:06;;;;;;;9.15;1.40;;;;;;;34.72;14.82;101568.92;1765752;81;27571;-60
2022/05/20 11:17:47;;;;;;;9.70;1.47;;;;;;;34.55;15.05;101563.65;1763867;80;25710;-59
2022/05/20 11:20:25;;;;;;;5.70;1.40;;;;;;;34.37;14.87;101555.22;1764088;81;25474;-59
2022/05/20 11:23:13;;;;;;;5.55;1.40;;;;;;;34.30;15.01;101558.85;1765696;81;26180;-58
2022/05/20 11:25:57;;;;;;;3.50;1.10;;;;;;;34.53;14.23;101557.50;1768150;81;25807;-60
2022/05/20 11:28:35;;;;;;;5.47;1.05;;;;;;;34.53;14.35;101558.89;1767588;81;27467;-60
2022/05/20 11:31:44;;;;;;;9.80;1.47;;;;;;;34.90;14.35;101553.58;1767581;81;25924;-60
2022/05/20 11:34:16;;;;;;;11.40;1.60;;;;;;;35.23;14.15;101555.44;1704239;84;25816;-59
2022/05/20 11:37:02;;;;;;;21.75;1.98;;;;;;;35.69;14.35;101551.63;1703210;84;27005;-59
2022/05/20 11:39:46;;;;;;;2.67;1.00;;;;;;;36.11;13.80;101559.81;1695157;84;25816;-60
2022/05/20 11:42:51;;;;;;;1.92;0.85;;;;;;;35.92;13.21;101548.45;1761138;81;27603;-60
2022/05/20 11:46:01;;;;;;;4.62;0.80;;;;;;;35.66;13.40;101549.97;1763507;81;25759;-59
2022/05/20 11:48:43;;;;;;;13.62;1.55;;;;;;;35.28;13.26;101541.17;1704192;83;25833;-59
2022/05/20 11:51:48;;;;;;;11.10;1.37;;;;;;;35.03;13.67;101527.53;1734537;81;26241;-60
2022/05/20 11:54:50;;;;;;;3.45;1.20;;;;;;;35.00;13.83;101516.37;1763759;81;27328;-59
2022/05/20 11:57:22;;;;;;;2.22;1.30;;;;;;;34.84;13.90;101510.52;1764216;81;27616;-59
2022/05/20 12:00:03;;;;;;;6.67;1.05;;;;;;;34.62;13.80;101509.72;1763708;81;25771;-60
2022/05/20 12:02:37;;;;;;;4.92;1.25;;;;;;;34.35;14.08;101502.16;1704424;84;25824;-59
2022/05/20 12:05:09;;;;;;;6.10;1.22;;;;;;;34.21;14.05;101494.91;1671344;85;26120;-59
2022/05/20 12:07:38;;;;;;;12.07;2.03;;;;;;;34.14;14.14;101498.81;1711580;83;25945;-59
2022/05/20 12:10:40;;;;;;;8.63;1.27;;;;;;;33.75;14.57;101488.13;1720975;82;27469;-60
2022/05/20 12:13:24;;;;;;;8.13;1.05;;;;;;;33.48;14.99;101490.56;1772833;80;31622;-59
2022/05/20 12:16:10;;;;;;;4.85;1.52;;;;;;;33.48;15.08;101483.59;1766159;80;25798;-60
2022/05/20 12:24:47;;;;;;;5.22;1.50;;;;;;;33.78;14.72;101462.47;1759993;81;27568;-59
2022/05/20 12:27:25;;;;;;;2.15;0.90;;;;;;;34.85;14.19;101453.50;1765232;81;25755;-60
2022/05/20 12:30:19;;;;;;;2.30;1.00;;;;;;;35.20;13.30;101446.94;1767626;81;25694;-60
2022/05/20 12:32:49;;;;;;;2.05;1.20;;;;;;;35.42;12.97;101438.76;1750120;81;26797;-59